createdAt,value
2022-08-01T00:01:59.179Z,100.00
2022-08-01T00:05:03.146Z,97.42
2022-08-01T00:08:06.187Z,93.03
2022-08-01T00:11:10.168Z,92.64
2022-08-01T00:14:12.797Z,93.12
2022-08-01T00:17:15.305Z,93.47
2022-08-01T00:20:19.257Z,92.58
2022-08-01T00:23:21.753Z,92.24
2022-08-01T00:26:24.278Z,92.08
2022-08-01T00:30:09.829Z,92.39
2022-08-01T00:32:49.295Z,93.04
2022-08-01T00:35:53.846Z,93.83
2022-08-01T00:38:56.432Z,94.87
2022-08-01T00:41:59.429Z,96.19
2022-08-01T00:45:02.663Z,96.68
2022-08-01T00:48:05.783Z,96.67
2022-08-01T00:51:10.416Z,96.94
2022-08-01T00:54:13.287Z,97.15
2022-08-01T00:58:02.654Z,97.95
2022-08-01T01:00:54.055Z,98.49
2022-08-01T01:03:58.985Z,98.47
2022-08-01T01:07:11.559Z,98.01
2022-08-01T01:10:19.879Z,98.57
2022-08-01T01:13:30.634Z,98.05
2022-08-01T01:16:35.611Z,97.45
2022-08-01T01:19:43.546Z,97.26
2022-08-01T01:23:00.305Z,97.30
2022-08-01T01:26:17.867Z,96.95
2022-08-01T01:29:25.913Z,97.36
2022-08-01T01:32:34.639Z,97.55
2022-08-01T01:35:44.007Z,98.12
2022-08-01T01:38:48.743Z,98.63
2022-08-01T01:41:52.563Z,98.48
2022-08-01T01:44:56.731Z,98.71
2022-08-01T01:48:01.011Z,100.00
2022-08-01T01:51:05.285Z,100.00
2022-08-01T01:54:10.406Z,100.00
2022-08-01T01:57:14.334Z,100.00
2022-08-01T02:00:19.353Z,100.00
2022-08-01T02:03:23.258Z,100.00
2022-08-01T02:06:28.631Z,100.00
2022-08-01T02:09:33.046Z,100.00
2022-08-01T02:12:39.803Z,100.00
2022-08-01T02:15:59.913Z,100.00
2022-08-01T02:19:03.732Z,100.00
2022-08-01T02:22:11.909Z,100.00
2022-08-01T02:25:22.642Z,100.00
2022-08-01T02:28:30.581Z,100.00
2022-08-01T02:31:40.222Z,100.00
2022-08-01T02:34:45.480Z,100.00
2022-08-01T02:37:50.435Z,100.00
2022-08-01T02:40:54.814Z,100.00
2022-08-01T02:44:02.845Z,100.00
2022-08-01T02:47:07.321Z,100.00
2022-08-01T02:50:14.255Z,100.00
2022-08-01T02:53:20.354Z,100.00
2022-08-01T02:56:24.798Z,100.00
2022-08-01T02:59:30.709Z,100.00
2022-08-01T03:02:36.795Z,100.00
2022-08-01T03:05:41.000Z,100.00
2022-08-01T03:08:45.670Z,100.00
2022-08-01T03:11:50.004Z,100.00
2022-08-01T03:14:55.487Z,100.00
2022-08-01T03:18:01.908Z,100.00
2022-08-01T03:21:06.005Z,100.00
2022-08-01T03:24:10.796Z,100.00
2022-08-01T03:27:14.353Z,100.00
2022-08-01T03:30:17.230Z,100.00
2022-08-01T03:33:21.096Z,100.00
2022-08-01T03:36:29.573Z,100.00
2022-08-01T03:39:35.678Z,100.00
2022-08-01T03:42:46.703Z,100.00
2022-08-01T03:45:52.535Z,100.00
2022-08-01T03:49:00.987Z,100.00
2022-08-01T03:52:06.324Z,100.00
2022-08-01T03:55:10.374Z,100.00
2022-08-01T03:58:14.930Z,100.00
2022-08-01T04:01:18.777Z,100.00
2022-08-01T04:04:23.102Z,100.00
2022-08-01T04:07:27.584Z,100.00
2022-08-01T04:10:30.446Z,100.00
2022-08-01T04:13:36.856Z,100.00
2022-08-01T04:16:40.253Z,100.00
2022-08-01T04:19:45.727Z,100.00
2022-08-01T04:22:48.332Z,100.00
2022-08-01T04:25:52.784Z,100.00
2022-08-01T04:28:56.965Z,100.00
2022-08-01T04:32:01.884Z,100.00
2022-08-01T04:35:22.931Z,100.00
2022-08-01T04:38:37.721Z,100.00
2022-08-01T04:41:41.796Z,100.00
2022-08-01T04:44:44.422Z,100.00
2022-08-01T04:47:48.747Z,100.00
2022-08-01T04:50:52.923Z,100.00
2022-08-01T04:53:55.621Z,100.00
2022-08-01T04:57:00.908Z,100.00
2022-08-01T05:00:03.619Z,100.00
2022-08-01T05:03:06.350Z,100.00
2022-08-01T05:06:10.154Z,100.00
2022-08-01T05:09:12.638Z,100.00
2022-08-01T05:12:15.280Z,100.00
2022-08-01T05:15:17.750Z,100.00
2022-08-01T05:18:27.906Z,100.00
2022-08-01T05:21:32.402Z,100.00
2022-08-01T05:24:36.673Z,100.00
2022-08-01T05:27:40.572Z,100.00
2022-08-01T05:30:43.235Z,100.00
2022-08-01T05:33:45.783Z,100.00
2022-08-01T05:36:56.787Z,100.00
2022-08-01T05:40:00.583Z,100.00
2022-08-01T05:43:03.091Z,100.00
2022-08-01T05:46:05.574Z,100.00
2022-08-01T05:49:08.285Z,100.00
2022-08-01T05:52:12.720Z,100.00
2022-08-01T05:55:15.323Z,100.00
2022-08-01T05:58:17.857Z,100.00
2022-08-01T06:01:20.993Z,100.00
2022-08-01T06:04:23.598Z,100.00
2022-08-01T06:07:27.495Z,100.00
2022-08-01T06:10:29.974Z,100.00
2022-08-01T06:13:33.511Z,100.00
2022-08-01T06:16:49.561Z,100.00
2022-08-01T06:19:52.055Z,100.00
2022-08-01T06:22:56.463Z,100.00
2022-08-01T06:26:02.389Z,100.00
2022-08-01T06:29:05.011Z,100.00
2022-08-01T06:32:08.848Z,100.00
2022-08-01T06:35:11.518Z,100.00
2022-08-01T06:38:15.382Z,100.00
2022-08-01T06:41:17.837Z,100.00
2022-08-01T06:44:20.360Z,100.00
2022-08-01T06:47:22.842Z,100.00
2022-08-01T06:50:25.325Z,100.00
2022-08-01T06:53:32.603Z,100.00
2022-08-01T06:56:37.434Z,100.00
2022-08-01T06:59:39.991Z,100.00
2022-08-01T07:02:56.214Z,100.00
2022-08-01T07:05:58.692Z,100.00
2022-08-01T07:09:08.415Z,100.00
2022-08-01T07:12:14.737Z,100.00
2022-08-01T07:15:17.533Z,96.66
2022-08-01T07:18:20.117Z,82.74
2022-08-01T07:21:39.242Z,75.78
2022-08-01T07:24:45.864Z,72.02
2022-08-01T07:27:48.582Z,69.89
2022-08-01T07:30:51.027Z,77.27
2022-08-01T07:33:53.526Z,77.98
2022-08-01T07:36:56.102Z,78.95
2022-08-01T07:39:59.912Z,83.71
2022-08-01T07:43:02.433Z,85.42
2022-08-01T07:46:05.337Z,84.25
2022-08-01T07:49:08.013Z,84.14
2022-08-01T07:52:10.800Z,85.11
2022-08-01T07:55:16.565Z,87.71
2022-08-01T07:58:19.531Z,88.79
2022-08-01T08:01:22.064Z,90.45
2022-08-01T08:04:24.608Z,93.85
2022-08-01T08:07:27.185Z,94.70
2022-08-01T08:10:30.979Z,95.38
2022-08-01T08:13:33.509Z,96.42
2022-08-01T08:16:36.084Z,93.51
2022-08-01T08:19:40.110Z,94.34
2022-08-01T08:22:42.739Z,93.45
2022-08-01T08:25:46.544Z,91.54
2022-08-01T08:28:49.138Z,91.89
2022-08-01T08:32:03.839Z,90.07
2022-08-01T08:35:08.131Z,90.77
2022-08-01T08:38:14.709Z,87.37
2022-08-01T08:41:21.291Z,84.86
2022-08-01T08:44:24.387Z,81.11
2022-08-01T08:47:27.541Z,79.23
2022-08-01T08:50:30.591Z,80.90
2022-08-01T08:53:35.860Z,81.23
2022-08-01T08:56:40.247Z,82.12
2022-08-01T08:59:45.300Z,80.61
2022-08-01T09:02:50.110Z,76.50
2022-08-01T09:05:52.781Z,76.25
2022-08-01T09:08:55.374Z,76.87
2022-08-01T09:11:59.394Z,76.11
2022-08-01T09:15:01.869Z,76.63
2022-08-01T09:18:04.416Z,77.47
2022-08-01T09:21:17.165Z,77.84
2022-08-01T09:24:30.328Z,78.37
2022-08-01T09:27:36.186Z,79.25
2022-08-01T09:30:40.816Z,81.20
2022-08-01T09:33:55.323Z,83.13
2022-08-01T09:37:03.355Z,84.79
2022-08-01T09:40:07.105Z,88.62
2022-08-01T09:43:15.063Z,91.86
2022-08-01T09:46:18.088Z,91.24
2022-08-01T09:49:51.828Z,92.54
2022-08-01T09:52:57.059Z,92.38
2022-08-01T09:56:11.664Z,88.41
2022-08-01T09:59:16.861Z,87.82
2022-08-01T10:02:31.369Z,87.73
2022-08-01T10:05:36.867Z,88.98
2022-08-01T10:08:47.825Z,91.97
2022-08-01T10:11:50.451Z,90.88
2022-08-01T10:14:56.335Z,87.07
2022-08-01T10:18:00.838Z,82.76
2022-08-01T10:21:08.615Z,77.10
2022-08-01T10:24:13.450Z,75.57
2022-08-01T10:27:24.731Z,71.48
2022-08-01T10:30:45.343Z,71.85
2022-08-01T10:33:51.697Z,71.46
2022-08-01T10:36:56.064Z,75.66
2022-08-01T10:40:27.118Z,83.88
2022-08-01T10:43:22.359Z,89.63
2022-08-01T10:46:26.823Z,91.50
2022-08-01T10:49:32.395Z,92.29
2022-08-01T10:52:39.250Z,91.29
2022-08-01T10:55:50.018Z,87.37
2022-08-01T10:59:06.811Z,80.39
2022-08-01T11:02:32.155Z,79.91
2022-08-01T11:05:36.591Z,77.76
2022-08-01T11:08:40.189Z,76.66
2022-08-01T11:12:00.983Z,77.55
2022-08-01T11:15:29.128Z,81.01
2022-08-01T11:18:37.607Z,84.90
2022-08-01T11:22:04.872Z,98.93
2022-08-01T11:25:07.793Z,100.00
2022-08-01T11:28:29.114Z,100.00
2022-08-01T11:31:37.869Z,100.00
2022-08-01T11:35:06.956Z,100.00
2022-08-01T11:38:29.270Z,100.00
2022-08-01T11:41:37.650Z,100.00
2022-08-01T11:44:51.064Z,100.00
2022-08-01T11:47:53.602Z,100.00
2022-08-01T11:51:02.024Z,100.00
2022-08-01T11:54:05.025Z,98.19
2022-08-01T11:57:10.451Z,96.32
2022-08-01T12:00:17.409Z,91.69
2022-08-01T12:03:33.576Z,95.39
2022-08-01T12:06:38.240Z,98.96
2022-08-01T12:09:44.332Z,100.00
2022-08-01T12:12:49.363Z,100.00
2022-08-01T12:15:56.552Z,100.00
2022-08-01T12:18:59.505Z,100.00
2022-08-01T12:22:14.928Z,100.00
2022-08-01T12:25:19.523Z,100.00
2022-08-01T12:28:22.414Z,100.00
2022-08-01T12:31:33.057Z,100.00
2022-08-01T12:34:36.021Z,100.00
2022-08-01T12:37:41.559Z,98.74
2022-08-01T12:40:46.120Z,94.40
2022-08-01T12:43:49.872Z,92.75
2022-08-01T12:46:52.643Z,88.15
2022-08-01T12:49:55.305Z,84.93
2022-08-01T12:52:59.948Z,84.63
2022-08-01T12:56:02.425Z,78.48
2022-08-01T12:59:25.843Z,79.62
2022-08-01T13:02:33.914Z,79.69
2022-08-01T13:05:44.090Z,80.29
2022-08-01T13:08:47.973Z,86.37
2022-08-01T13:11:58.911Z,90.59
2022-08-01T13:15:28.862Z,90.75
2022-08-01T13:18:33.341Z,86.58
2022-08-01T13:21:54.281Z,81.73
2022-08-01T13:25:14.400Z,81.24
2022-08-01T13:28:21.876Z,81.17
2022-08-01T13:31:34.388Z,84.32
2022-08-01T13:34:36.931Z,81.54
2022-08-01T13:37:40.522Z,80.27
2022-08-01T13:40:44.376Z,81.75
2022-08-01T13:43:58.564Z,82.22
2022-08-01T13:47:01.927Z,87.11
2022-08-01T13:50:14.174Z,90.28
2022-08-01T13:53:16.651Z,93.17
2022-08-01T13:56:21.058Z,93.66
2022-08-01T13:59:23.551Z,93.28
2022-08-01T14:02:26.018Z,95.30
2022-08-01T14:05:28.622Z,88.83
2022-08-01T14:08:31.205Z,86.72
2022-08-01T14:11:37.336Z,86.11
2022-08-01T14:14:40.370Z,79.43
2022-08-01T14:17:47.560Z,77.12
2022-08-01T14:20:50.752Z,73.79
2022-08-01T14:23:56.966Z,68.77
2022-08-01T14:27:00.818Z,70.43
2022-08-01T14:30:04.249Z,71.03
2022-08-01T14:33:06.912Z,70.59
2022-08-01T14:36:30.441Z,71.90
2022-08-01T14:39:31.915Z,73.00
2022-08-01T14:42:35.724Z,71.75
2022-08-01T14:45:38.201Z,73.71
2022-08-01T14:48:40.747Z,73.31
2022-08-01T14:51:43.250Z,74.03
2022-08-01T14:54:45.738Z,72.94
2022-08-01T14:57:49.528Z,73.12
2022-08-01T15:00:58.657Z,73.53
2022-08-01T15:04:01.823Z,72.37
2022-08-01T15:07:07.051Z,74.89
2022-08-01T15:10:10.333Z,75.83
2022-08-01T15:13:14.140Z,76.88
2022-08-01T15:16:16.601Z,77.48
2022-08-01T15:19:19.095Z,77.72
2022-08-01T15:22:23.247Z,75.34
2022-08-01T15:25:25.757Z,73.43
2022-08-01T15:28:44.535Z,71.46
2022-08-01T15:31:47.355Z,70.72
2022-08-01T15:34:49.866Z,70.94
2022-08-01T15:37:52.333Z,66.10
2022-08-01T15:40:54.824Z,66.29
2022-08-01T15:43:58.694Z,65.95
2022-08-01T15:47:01.846Z,65.42
2022-08-01T15:50:05.449Z,66.04
2022-08-01T15:53:08.479Z,67.85
2022-08-01T15:56:10.963Z,66.62
2022-08-01T15:59:15.119Z,68.27
2022-08-01T16:02:17.709Z,66.74
2022-08-01T16:05:20.750Z,67.40
2022-08-01T16:08:23.622Z,65.12
2022-08-01T16:11:27.733Z,65.44
2022-08-01T16:14:31.550Z,67.28
2022-08-01T16:17:35.276Z,68.92
2022-08-01T16:20:45.352Z,68.95
2022-08-01T16:23:48.166Z,68.56
2022-08-01T16:26:50.857Z,67.85
2022-08-01T16:29:54.659Z,66.68
2022-08-01T16:33:03.937Z,66.97
2022-08-01T16:36:16.688Z,68.67
2022-08-01T16:39:23.220Z,68.07
2022-08-01T16:42:27.706Z,70.09
2022-08-01T16:45:32.390Z,71.63
2022-08-01T16:48:34.888Z,69.81
2022-08-01T16:51:47.864Z,72.24
2022-08-01T16:54:50.938Z,72.39
2022-08-01T16:57:53.431Z,73.31
2022-08-01T17:01:57.815Z,72.30
2022-08-01T17:04:20.025Z,73.06
2022-08-01T17:07:22.491Z,75.19
2022-08-01T17:10:25.867Z,74.37
2022-08-01T17:13:28.382Z,73.60
2022-08-01T17:16:32.606Z,74.81
2022-08-01T17:19:35.139Z,72.80
2022-08-01T17:22:37.609Z,73.73
2022-08-01T17:25:40.073Z,73.27
2022-08-01T17:28:42.907Z,73.80
2022-08-01T17:31:46.817Z,73.84
2022-08-01T17:34:50.038Z,74.30
2022-08-01T17:37:52.546Z,75.99
2022-08-01T17:40:55.058Z,75.29
2022-08-01T17:43:57.867Z,75.20
2022-08-01T17:47:01.666Z,75.77
2022-08-01T17:50:06.448Z,75.50
2022-08-01T17:53:08.955Z,75.60
2022-08-01T17:56:11.433Z,76.22
2022-08-01T17:59:13.962Z,77.10
2022-08-01T18:02:17.859Z,78.12
2022-08-01T18:05:20.665Z,78.96
2022-08-01T18:08:41.061Z,78.91
2022-08-01T18:11:43.556Z,80.02
2022-08-01T18:14:46.647Z,81.06
2022-08-01T18:17:50.479Z,81.83
2022-08-01T18:20:52.959Z,82.31
2022-08-01T18:23:55.440Z,82.66
2022-08-01T18:26:58.772Z,83.75
2022-08-01T18:30:01.487Z,85.17
2022-08-01T18:33:05.347Z,85.56
2022-08-01T18:36:09.789Z,85.99
2022-08-01T18:39:27.194Z,85.98
2022-08-01T18:42:32.659Z,86.29
2022-08-01T18:45:39.529Z,87.90
2022-08-01T18:48:46.163Z,88.96
2022-08-01T18:51:48.678Z,90.51
2022-08-01T18:54:51.734Z,92.32
2022-08-01T18:57:54.193Z,93.86
2022-08-01T19:00:56.747Z,94.77
2022-08-01T19:04:00.558Z,96.15
2022-08-01T19:07:03.373Z,97.60
2022-08-01T19:10:06.641Z,99.18
2022-08-01T19:13:09.872Z,100.00
2022-08-01T19:16:13.056Z,100.00
2022-08-01T19:19:27.592Z,100.00
2022-08-01T19:22:30.597Z,100.00
2022-08-01T19:25:33.249Z,100.00
2022-08-01T19:28:59.021Z,100.00
2022-08-01T19:32:03.007Z,100.00
2022-08-01T19:35:11.161Z,100.00
2022-08-01T19:38:15.169Z,100.00
2022-08-01T19:41:18.690Z,100.00
2022-08-01T19:44:23.721Z,100.00
2022-08-01T19:47:26.331Z,100.00
2022-08-01T19:50:52.231Z,100.00
2022-08-01T19:53:56.339Z,100.00
2022-08-01T19:57:01.750Z,100.00
2022-08-01T20:00:05.529Z,100.00
2022-08-01T20:03:08.524Z,100.00
2022-08-01T20:06:12.445Z,100.00
2022-08-01T20:09:15.129Z,100.00
2022-08-01T20:12:21.561Z,100.00
2022-08-01T20:15:25.627Z,100.00
2022-08-01T20:18:28.084Z,100.00
2022-08-01T20:21:33.838Z,100.00
2022-08-01T20:24:41.308Z,100.00
2022-08-01T20:27:47.986Z,100.00
2022-08-01T20:30:55.725Z,100.00
2022-08-01T20:34:01.206Z,100.00
2022-08-01T20:37:12.411Z,100.00
2022-08-01T20:40:17.313Z,100.00
2022-08-01T20:43:26.117Z,100.00
2022-08-01T20:46:29.771Z,100.00
2022-08-01T20:49:33.142Z,100.00
2022-08-01T20:52:36.997Z,100.00
2022-08-01T20:55:47.315Z,100.00
2022-08-01T20:59:01.258Z,100.00
2022-08-01T21:02:12.009Z,100.00
2022-08-01T21:05:23.281Z,100.00
2022-08-01T21:08:36.206Z,100.00
2022-08-01T21:11:42.565Z,100.00
2022-08-01T21:14:51.485Z,100.00
2022-08-01T21:18:02.251Z,100.00
2022-08-01T21:21:10.189Z,100.00
2022-08-01T21:24:17.705Z,100.00
2022-08-01T21:27:22.334Z,100.00
2022-08-01T21:30:37.046Z,100.00
2022-08-01T21:33:57.070Z,100.00
2022-08-01T21:37:05.485Z,100.00
2022-08-01T21:40:11.098Z,100.00
2022-08-01T21:43:14.999Z,100.00
2022-08-01T21:46:18.824Z,100.00
2022-08-01T21:49:22.605Z,100.00
2022-08-01T21:52:25.541Z,100.00
2022-08-01T21:55:35.646Z,100.00
2022-08-01T21:58:47.587Z,100.00
2022-08-01T22:01:58.785Z,100.00
2022-08-01T22:05:05.627Z,100.00
2022-08-01T22:08:10.613Z,100.00
2022-08-01T22:11:18.991Z,100.00
2022-08-01T22:14:23.313Z,100.00
2022-08-01T22:17:26.166Z,100.00
2022-08-01T22:20:29.356Z,100.00
2022-08-01T22:23:35.695Z,100.00
2022-08-01T22:26:41.517Z,100.00
2022-08-01T22:29:44.075Z,100.00
2022-08-01T22:33:07.290Z,100.00
2022-08-01T22:36:10.163Z,100.00
2022-08-01T22:39:16.212Z,100.00
2022-08-01T22:42:26.738Z,100.00
2022-08-01T22:45:39.972Z,100.00
2022-08-01T22:48:46.434Z,100.00
2022-08-01T22:51:56.251Z,100.00
2022-08-01T22:55:04.230Z,100.00
2022-08-01T22:58:11.904Z,100.00
2022-08-01T23:01:21.162Z,100.00
2022-08-01T23:04:34.084Z,100.00
2022-08-01T23:07:40.524Z,100.00
2022-08-01T23:10:44.032Z,100.00
2022-08-01T23:13:48.242Z,100.00
2022-08-01T23:16:51.697Z,100.00
2022-08-01T23:19:54.829Z,100.00
2022-08-01T23:22:58.317Z,100.00
2022-08-01T23:26:01.950Z,100.00
2022-08-01T23:29:06.391Z,100.00
2022-08-01T23:32:08.943Z,100.00
2022-08-01T23:35:11.440Z,100.00
2022-08-01T23:38:15.803Z,100.00
2022-08-01T23:41:19.262Z,100.00
2022-08-01T23:44:23.082Z,100.00
2022-08-01T23:47:25.594Z,100.00
2022-08-01T23:50:28.455Z,100.00
2022-08-01T23:53:33.648Z,100.00
2022-08-01T23:56:38.637Z,100.00
2022-08-01T23:59:52.561Z,100.00
